createdAt,value
2019-03-24T00:02:08.985Z,6.90
2019-03-24T00:04:41.889Z,6.90
2019-03-24T00:07:14.345Z,6.90
2019-03-24T00:09:46.952Z,6.90
2019-03-24T00:12:20.197Z,6.80
2019-03-24T00:14:53.188Z,6.80
2019-03-24T00:17:25.275Z,6.70
2019-03-24T00:19:58.372Z,6.70
2019-03-24T00:22:30.137Z,6.70
2019-03-24T00:25:02.931Z,6.60
2019-03-24T00:27:35.938Z,6.60
2019-03-24T00:30:09.455Z,6.60
2019-03-24T00:32:41.886Z,6.70
2019-03-24T00:35:13.952Z,6.60
2019-03-24T00:37:46.236Z,6.60
2019-03-24T00:40:19.020Z,6.60
2019-03-24T00:42:51.744Z,6.60
2019-03-24T00:45:23.677Z,6.50
2019-03-24T00:47:55.597Z,6.60
2019-03-24T00:50:28.317Z,6.50
2019-03-24T00:53:00.325Z,6.50
2019-03-24T00:55:33.959Z,6.60
2019-03-24T00:58:05.793Z,6.70
2019-03-24T01:00:48.795Z,6.60
2019-03-24T01:03:20.838Z,6.60
2019-03-24T01:05:53.186Z,6.50
2019-03-24T01:08:25.591Z,6.50
2019-03-24T01:10:58.341Z,6.50
2019-03-24T01:13:31.351Z,6.50
2019-03-24T01:16:04.955Z,6.50
2019-03-24T01:18:38.524Z,6.50
2019-03-24T01:21:11.332Z,6.40
2019-03-24T01:23:43.324Z,6.40
2019-03-24T01:26:16.135Z,6.30
2019-03-24T01:28:48.263Z,6.30
2019-03-24T01:31:21.291Z,6.30
2019-03-24T01:33:54.810Z,6.30
2019-03-24T01:36:27.043Z,6.30
2019-03-24T01:39:00.665Z,6.30
2019-03-24T01:41:32.793Z,6.30
2019-03-24T01:44:05.041Z,6.30
2019-03-24T01:46:37.660Z,6.20
2019-03-24T01:49:09.905Z,6.10
2019-03-24T01:51:42.115Z,6.20
2019-03-24T01:54:15.715Z,6.10
2019-03-24T01:56:49.250Z,6.10
2019-03-24T01:59:21.161Z,6.10
2019-03-24T02:01:54.729Z,6.00
2019-03-24T02:04:28.269Z,6.00
2019-03-24T02:07:00.337Z,6.00
2019-03-24T02:09:33.954Z,6.00
2019-03-24T02:12:07.575Z,6.00
2019-03-24T02:14:39.567Z,5.90
2019-03-24T02:17:11.517Z,5.90
2019-03-24T02:19:44.235Z,5.90
2019-03-24T02:22:17.809Z,5.90
2019-03-24T02:24:50.485Z,5.90
2019-03-24T02:27:23.019Z,5.80
2019-03-24T02:29:55.004Z,5.80
2019-03-24T02:32:28.569Z,5.80
2019-03-24T02:35:02.140Z,5.80
2019-03-24T02:37:35.154Z,5.80
2019-03-24T02:40:08.949Z,5.80
2019-03-24T02:42:42.505Z,5.80
2019-03-24T02:45:15.428Z,5.80
2019-03-24T02:47:48.120Z,5.90
2019-03-24T02:50:20.039Z,5.80
2019-03-24T02:52:53.568Z,5.80
2019-03-24T02:55:25.994Z,5.80
2019-03-24T02:57:59.235Z,5.70
2019-03-24T03:00:31.682Z,5.80
2019-03-24T03:03:03.665Z,5.70
2019-03-24T03:05:37.195Z,5.70
2019-03-24T03:08:10.781Z,5.70
2019-03-24T03:10:44.228Z,5.60
2019-03-24T03:13:17.861Z,5.70
2019-03-24T03:15:50.975Z,5.60
2019-03-24T03:18:24.187Z,5.60
2019-03-24T03:20:56.251Z,5.60
2019-03-24T03:23:30.052Z,5.50
2019-03-24T03:26:02.803Z,5.60
2019-03-24T03:28:36.422Z,5.60
2019-03-24T03:31:08.700Z,5.50
2019-03-24T03:33:40.730Z,5.50
2019-03-24T03:36:14.392Z,5.40
2019-03-24T03:38:47.861Z,5.40
2019-03-24T03:41:20.635Z,5.40
2019-03-24T03:43:53.150Z,5.40
2019-03-24T03:46:25.401Z,5.40
2019-03-24T03:48:57.469Z,5.40
2019-03-24T03:51:29.734Z,5.40
2019-03-24T03:54:02.145Z,5.30
2019-03-24T03:56:34.901Z,5.30
2019-03-24T03:59:07.617Z,5.30
2019-03-24T04:01:39.457Z,5.30
2019-03-24T04:04:12.152Z,5.20
2019-03-24T04:06:45.860Z,5.20
2019-03-24T04:09:19.522Z,5.20
2019-03-24T04:11:51.388Z,5.20
2019-03-24T04:14:23.821Z,5.10
2019-03-24T04:17:06.170Z,5.20
2019-03-24T04:19:30.316Z,5.10
2019-03-24T04:22:03.903Z,5.20
2019-03-24T04:24:35.699Z,5.20
2019-03-24T04:27:07.851Z,5.20
2019-03-24T04:29:41.338Z,5.20
2019-03-24T04:32:13.987Z,5.10
2019-03-24T04:34:45.953Z,5.20
2019-03-24T04:37:18.530Z,5.10
2019-03-24T04:39:52.259Z,5.10
2019-03-24T04:42:24.781Z,5.10
2019-03-24T04:44:57.087Z,5.10
2019-03-24T04:47:29.869Z,5.00
2019-03-24T04:50:01.679Z,5.10
2019-03-24T04:52:33.507Z,5.10
2019-03-24T04:55:05.827Z,5.10
2019-03-24T04:57:39.409Z,5.10
2019-03-24T05:00:12.446Z,5.10
2019-03-24T05:02:46.048Z,5.20
2019-03-24T05:05:19.112Z,5.30
2019-03-24T05:07:51.544Z,5.30
2019-03-24T05:10:28.144Z,5.40
2019-03-24T05:13:01.763Z,5.40
2019-03-24T05:15:33.589Z,5.60
2019-03-24T05:18:05.452Z,6.10
2019-03-24T05:20:39.021Z,7.10
2019-03-24T05:23:11.253Z,8.20
2019-03-24T05:25:44.494Z,8.80
2019-03-24T05:28:16.959Z,9.40
2019-03-24T05:30:49.010Z,9.50
2019-03-24T05:33:21.392Z,9.00
2019-03-24T05:35:54.964Z,8.10
2019-03-24T05:38:26.770Z,7.70
2019-03-24T05:41:00.283Z,6.90
2019-03-24T05:43:32.458Z,6.60
2019-03-24T05:46:05.717Z,6.60
2019-03-24T05:48:38.939Z,6.50
2019-03-24T05:51:11.459Z,6.50
2019-03-24T05:53:45.017Z,6.30
2019-03-24T05:56:16.827Z,6.40
2019-03-24T05:58:49.345Z,6.50
2019-03-24T06:01:21.586Z,6.50
2019-03-24T06:03:53.565Z,6.30
2019-03-24T06:06:25.544Z,6.30
2019-03-24T06:08:58.505Z,6.40
2019-03-24T06:11:30.627Z,6.30
2019-03-24T06:14:03.402Z,6.50
2019-03-24T06:16:35.269Z,6.40
2019-03-24T06:19:08.828Z,6.50
2019-03-24T06:21:41.797Z,6.50
2019-03-24T06:24:14.188Z,6.60
2019-03-24T06:26:47.747Z,6.60
2019-03-24T06:29:21.252Z,6.70
2019-03-24T06:31:53.867Z,6.60
2019-03-24T06:34:25.836Z,6.60
2019-03-24T06:37:01.039Z,6.60
2019-03-24T06:39:33.189Z,6.60
2019-03-24T06:42:06.416Z,6.60
2019-03-24T06:44:38.244Z,6.60
2019-03-24T06:47:10.593Z,6.50
2019-03-24T06:49:44.009Z,6.60
2019-03-24T06:52:18.113Z,6.70
2019-03-24T06:54:50.182Z,6.60
2019-03-24T06:57:22.495Z,6.70
2019-03-24T06:59:54.870Z,6.70
2019-03-24T07:02:28.516Z,6.70
2019-03-24T07:05:02.137Z,6.90
2019-03-24T07:07:36.535Z,6.90
2019-03-24T07:10:09.440Z,7.00
2019-03-24T07:12:43.257Z,6.80
2019-03-24T07:15:15.275Z,6.80
2019-03-24T07:17:47.120Z,6.80
2019-03-24T07:20:19.445Z,6.80
2019-03-24T07:22:53.209Z,6.90
2019-03-24T07:25:25.415Z,6.90
2019-03-24T07:27:59.105Z,6.90
2019-03-24T07:30:31.302Z,7.00
2019-03-24T07:33:03.712Z,7.10
2019-03-24T07:35:35.576Z,7.20
2019-03-24T07:38:08.680Z,7.20
2019-03-24T07:40:40.576Z,7.30
2019-03-24T07:43:14.136Z,7.30
2019-03-24T07:45:48.556Z,7.30
2019-03-24T07:48:21.012Z,7.40
2019-03-24T07:50:53.645Z,7.50
2019-03-24T07:53:27.138Z,7.40
2019-03-24T07:56:00.697Z,7.50
2019-03-24T07:58:33.451Z,7.50
2019-03-24T08:01:05.534Z,7.40
2019-03-24T08:03:37.714Z,7.40
2019-03-24T08:06:10.803Z,7.60
2019-03-24T08:08:44.360Z,7.60
2019-03-24T08:11:16.838Z,7.80
2019-03-24T08:13:53.653Z,7.80
2019-03-24T08:16:22.338Z,7.80
2019-03-24T08:18:54.256Z,8.00
2019-03-24T08:21:26.222Z,8.00
2019-03-24T08:23:59.120Z,8.10
2019-03-24T08:26:30.982Z,8.10
2019-03-24T08:29:04.529Z,7.90
2019-03-24T08:31:37.201Z,8.20
2019-03-24T08:34:10.471Z,8.40
2019-03-24T08:36:43.583Z,8.60
2019-03-24T08:39:15.317Z,8.70
2019-03-24T08:41:48.877Z,8.60
2019-03-24T08:44:22.431Z,8.60
2019-03-24T08:46:54.619Z,8.80
2019-03-24T08:49:27.094Z,8.80
2019-03-24T08:52:00.442Z,8.90
2019-03-24T08:54:33.189Z,9.00
2019-03-24T08:57:06.175Z,9.00
2019-03-24T08:59:37.944Z,9.20
2019-03-24T09:02:10.022Z,9.00
2019-03-24T09:04:42.395Z,9.20
2019-03-24T09:07:14.457Z,9.20
2019-03-24T09:09:46.287Z,9.20
2019-03-24T09:12:18.199Z,9.40
2019-03-24T09:14:51.807Z,9.10
2019-03-24T09:17:24.285Z,9.00
2019-03-24T09:19:56.909Z,9.30
2019-03-24T09:22:28.909Z,9.50
2019-03-24T09:25:01.039Z,9.60
2019-03-24T09:27:32.955Z,9.70
2019-03-24T09:30:07.240Z,9.60
2019-03-24T09:32:39.136Z,9.70
2019-03-24T09:35:11.322Z,9.60
2019-03-24T09:37:44.969Z,9.60
2019-03-24T09:40:22.720Z,9.80
2019-03-24T09:42:56.318Z,9.60
2019-03-24T09:45:28.428Z,9.70
2019-03-24T09:48:02.434Z,9.70
2019-03-24T09:50:34.628Z,10.00
2019-03-24T09:53:07.489Z,10.10
2019-03-24T09:55:39.360Z,10.10
2019-03-24T09:58:11.305Z,10.30
2019-03-24T10:00:44.156Z,10.60
2019-03-24T10:03:17.668Z,10.30
2019-03-24T10:05:50.646Z,10.50
2019-03-24T10:08:22.554Z,10.20
2019-03-24T10:10:54.445Z,10.00
2019-03-24T10:13:26.496Z,10.20
2019-03-24T10:15:58.676Z,10.40
2019-03-24T10:18:32.347Z,10.30
2019-03-24T10:21:04.540Z,10.20
2019-03-24T10:23:36.693Z,10.30
2019-03-24T10:26:08.711Z,10.20
2019-03-24T10:28:41.896Z,10.30
2019-03-24T10:31:14.260Z,10.40
2019-03-24T10:33:47.556Z,10.40
2019-03-24T10:36:20.460Z,10.10
2019-03-24T10:38:52.313Z,10.40
2019-03-24T10:41:25.378Z,10.50
2019-03-24T10:43:58.021Z,10.30
2019-03-24T10:46:30.372Z,10.40
2019-03-24T10:49:02.286Z,10.30
2019-03-24T10:51:34.774Z,10.20
2019-03-24T10:54:07.714Z,10.40
2019-03-24T10:56:39.972Z,10.40
2019-03-24T10:59:12.838Z,10.70
2019-03-24T11:01:46.404Z,10.80
2019-03-24T11:04:20.906Z,10.70
2019-03-24T11:06:53.297Z,10.60
2019-03-24T11:09:25.390Z,10.50
2019-03-24T11:11:59.097Z,10.60
2019-03-24T11:14:32.497Z,10.60
2019-03-24T11:17:05.460Z,10.80
2019-03-24T11:19:39.926Z,10.90
2019-03-24T11:22:12.266Z,11.10
2019-03-24T11:24:46.151Z,11.00
2019-03-24T11:27:18.424Z,11.20
2019-03-24T11:29:51.896Z,11.10
2019-03-24T11:32:24.200Z,10.80
2019-03-24T11:34:56.342Z,10.80
2019-03-24T11:37:28.624Z,11.00
2019-03-24T11:40:00.794Z,11.00
2019-03-24T11:42:32.954Z,10.90
2019-03-24T11:45:06.516Z,10.90
2019-03-24T11:47:39.542Z,10.80
2019-03-24T11:50:13.723Z,11.00
2019-03-24T11:52:47.328Z,11.20
2019-03-24T11:55:19.796Z,11.10
2019-03-24T11:57:51.828Z,11.00
2019-03-24T12:00:34.101Z,10.70
2019-03-24T12:03:07.880Z,10.80
2019-03-24T12:05:41.572Z,10.70
2019-03-24T12:08:15.180Z,10.80
2019-03-24T12:10:47.452Z,10.90
2019-03-24T12:13:20.966Z,11.10
2019-03-24T12:15:54.505Z,11.00
2019-03-24T12:18:26.424Z,10.80
2019-03-24T12:21:00.673Z,10.50
2019-03-24T12:23:34.763Z,10.40
2019-03-24T12:26:08.261Z,10.30
2019-03-24T12:28:40.130Z,10.50
2019-03-24T12:31:12.246Z,10.40
2019-03-24T12:33:46.003Z,10.60
2019-03-24T12:36:21.927Z,10.80
2019-03-24T12:38:54.817Z,10.70
2019-03-24T12:41:28.283Z,10.80
2019-03-24T12:44:00.323Z,10.90
2019-03-24T12:46:33.098Z,11.00
2019-03-24T12:49:05.464Z,11.30
2019-03-24T12:51:37.365Z,11.30
2019-03-24T12:54:09.743Z,11.40
2019-03-24T12:56:43.416Z,11.20
2019-03-24T12:59:17.847Z,11.00
2019-03-24T13:01:50.171Z,10.90
2019-03-24T13:04:23.420Z,10.80
2019-03-24T13:06:55.599Z,10.80
2019-03-24T13:09:28.086Z,11.00
2019-03-24T13:12:02.986Z,11.10
2019-03-24T13:14:36.549Z,11.20
2019-03-24T13:17:08.769Z,10.70
2019-03-24T13:19:41.400Z,10.90
2019-03-24T13:22:14.404Z,10.90
2019-03-24T13:24:46.429Z,11.00
2019-03-24T13:27:19.985Z,10.70
2019-03-24T13:29:53.384Z,10.40
2019-03-24T13:32:25.850Z,10.70
2019-03-24T13:34:59.693Z,10.80
2019-03-24T13:37:32.030Z,10.90
2019-03-24T13:40:05.474Z,10.70
2019-03-24T13:42:39.026Z,10.70
2019-03-24T13:45:12.425Z,10.50
2019-03-24T13:47:45.263Z,10.80
2019-03-24T13:50:17.908Z,10.60
2019-03-24T13:52:50.353Z,10.60
2019-03-24T13:55:22.647Z,10.70
2019-03-24T13:57:54.468Z,10.40
2019-03-24T14:00:26.570Z,10.70
2019-03-24T14:02:58.425Z,10.60
2019-03-24T14:05:30.355Z,10.70
2019-03-24T14:08:02.510Z,11.00
2019-03-24T14:10:35.563Z,10.80
2019-03-24T14:13:07.518Z,10.70
2019-03-24T14:15:40.838Z,11.10
2019-03-24T14:18:13.704Z,11.00
2019-03-24T14:20:47.378Z,10.80
2019-03-24T14:23:20.910Z,11.00
2019-03-24T14:25:54.534Z,10.70
2019-03-24T14:28:26.806Z,10.70
2019-03-24T14:31:00.801Z,10.70
2019-03-24T14:33:32.854Z,10.40
2019-03-24T14:36:06.554Z,10.20
2019-03-24T14:38:38.859Z,10.40
2019-03-24T14:41:10.754Z,10.50
2019-03-24T14:43:44.116Z,10.30
2019-03-24T14:46:18.599Z,10.40
2019-03-24T14:48:51.336Z,10.30
2019-03-24T14:51:25.192Z,10.20
2019-03-24T14:54:00.018Z,10.20
2019-03-24T14:56:34.075Z,10.20
2019-03-24T14:59:06.102Z,10.00
2019-03-24T15:01:39.832Z,10.10
2019-03-24T15:04:13.788Z,10.10
2019-03-24T15:06:46.290Z,10.30
2019-03-24T15:09:19.904Z,10.10
2019-03-24T15:11:53.914Z,10.10
2019-03-24T15:14:26.487Z,10.00
2019-03-24T15:17:00.352Z,9.90
2019-03-24T15:19:34.053Z,10.20
2019-03-24T15:22:06.727Z,10.10
2019-03-24T15:24:40.425Z,10.20
2019-03-24T15:27:13.938Z,10.00
2019-03-24T15:29:47.557Z,9.90
2019-03-24T15:32:20.341Z,9.90
2019-03-24T15:34:55.015Z,10.00
2019-03-24T15:37:27.644Z,10.10
2019-03-24T15:40:01.959Z,9.90
2019-03-24T15:42:35.899Z,10.10
2019-03-24T15:45:09.769Z,10.00
2019-03-24T15:47:42.782Z,10.20
2019-03-24T15:50:15.746Z,10.20
2019-03-24T15:52:48.578Z,10.10
2019-03-24T15:55:22.104Z,10.00
2019-03-24T15:57:55.715Z,10.00
2019-03-24T16:00:43.215Z,9.80
2019-03-24T16:03:16.756Z,9.80
2019-03-24T16:05:50.991Z,9.70
2019-03-24T16:08:25.046Z,9.60
2019-03-24T16:10:58.868Z,9.50
2019-03-24T16:13:32.561Z,9.50
2019-03-24T16:16:05.921Z,9.20
2019-03-24T16:18:38.758Z,9.20
2019-03-24T16:21:10.816Z,9.20
2019-03-24T16:23:44.443Z,9.10
2019-03-24T16:26:17.987Z,9.10
2019-03-24T16:28:50.435Z,9.00
2019-03-24T16:31:25.294Z,8.90
2019-03-24T16:33:58.129Z,8.80
2019-03-24T16:36:31.703Z,9.00
2019-03-24T16:39:06.929Z,8.90
2019-03-24T16:41:41.233Z,8.80
2019-03-24T16:44:15.881Z,8.70
2019-03-24T16:46:48.990Z,8.60
2019-03-24T16:49:21.038Z,8.40
2019-03-24T16:51:53.361Z,8.30
2019-03-24T16:54:26.986Z,8.30
2019-03-24T16:56:59.271Z,8.30
2019-03-24T16:59:32.030Z,8.30
2019-03-24T17:02:04.590Z,8.30
2019-03-24T17:04:37.933Z,8.30
2019-03-24T17:07:10.968Z,8.20
2019-03-24T17:09:44.312Z,8.10
2019-03-24T17:12:18.273Z,8.00
2019-03-24T17:14:51.855Z,8.00
2019-03-24T17:17:24.320Z,7.90
2019-03-24T17:19:56.565Z,7.80
2019-03-24T17:22:30.206Z,7.90
2019-03-24T17:25:04.011Z,7.70
2019-03-24T17:27:38.689Z,7.70
2019-03-24T17:30:13.127Z,7.70
2019-03-24T17:32:45.530Z,7.70
2019-03-24T17:35:17.545Z,7.60
2019-03-24T17:37:51.235Z,7.50
2019-03-24T17:40:23.943Z,7.50
2019-03-24T17:43:00.175Z,7.50
2019-03-24T17:45:33.933Z,7.40
2019-03-24T17:48:06.946Z,7.30
2019-03-24T17:50:40.574Z,7.20
2019-03-24T17:53:14.226Z,7.20
2019-03-24T17:55:47.887Z,7.10
2019-03-24T17:58:21.499Z,7.10
2019-03-24T18:00:55.445Z,7.10
2019-03-24T18:03:29.016Z,7.10
2019-03-24T18:06:01.439Z,6.90
2019-03-24T18:08:35.118Z,6.90
2019-03-24T18:11:07.444Z,6.90
2019-03-24T18:13:39.765Z,6.80
2019-03-24T18:16:13.877Z,6.70
2019-03-24T18:18:47.733Z,6.80
2019-03-24T18:21:20.076Z,6.80
2019-03-24T18:23:53.682Z,6.60
2019-03-24T18:26:27.523Z,6.70
2019-03-24T18:29:00.461Z,6.60
2019-03-24T18:31:33.864Z,6.50
2019-03-24T18:34:07.317Z,6.40
2019-03-24T18:36:40.363Z,6.40
2019-03-24T18:39:12.699Z,6.40
2019-03-24T18:41:45.090Z,6.30
2019-03-24T18:44:18.581Z,6.20
2019-03-24T18:46:51.573Z,6.30
2019-03-24T18:49:25.687Z,6.30
2019-03-24T18:52:01.262Z,6.30
2019-03-24T18:54:34.941Z,6.30
2019-03-24T18:57:07.428Z,6.30
2019-03-24T18:59:41.121Z,6.30
2019-03-24T19:02:14.190Z,6.20
2019-03-24T19:04:47.550Z,6.20
2019-03-24T19:07:19.690Z,6.20
2019-03-24T19:09:51.652Z,6.20
2019-03-24T19:12:24.671Z,6.10
2019-03-24T19:14:58.983Z,6.10
2019-03-24T19:17:31.770Z,6.00
2019-03-24T19:20:05.074Z,6.00
2019-03-24T19:22:37.058Z,6.00
2019-03-24T19:25:11.221Z,6.00
2019-03-24T19:27:46.051Z,5.90
2019-03-24T19:30:21.208Z,5.90
2019-03-24T19:32:53.273Z,5.80
2019-03-24T19:35:26.948Z,5.90
2019-03-24T19:38:01.210Z,5.90
2019-03-24T19:40:33.997Z,5.90
2019-03-24T19:43:07.151Z,5.90
2019-03-24T19:45:40.545Z,5.90
2019-03-24T19:48:13.459Z,6.00
2019-03-24T19:50:46.457Z,5.90
2019-03-24T19:53:21.231Z,5.90
2019-03-24T19:55:54.897Z,5.80
2019-03-24T19:58:28.485Z,5.70
2019-03-24T20:01:00.382Z,5.70
2019-03-24T20:03:35.140Z,5.70
2019-03-24T20:06:09.100Z,5.70
2019-03-24T20:08:41.504Z,5.80
2019-03-24T20:11:13.723Z,5.60
2019-03-24T20:13:47.399Z,5.60
2019-03-24T20:16:19.316Z,5.60
2019-03-24T20:18:51.243Z,5.60
2019-03-24T20:21:24.267Z,5.50
2019-03-24T20:23:57.178Z,5.50
2019-03-24T20:26:30.114Z,5.50
2019-03-24T20:29:02.502Z,5.40
2019-03-24T20:31:36.227Z,5.50
2019-03-24T20:34:08.832Z,5.50
2019-03-24T20:36:41.479Z,5.50
2019-03-24T20:39:15.347Z,5.40
2019-03-24T20:41:47.861Z,5.40
2019-03-24T20:44:20.967Z,5.30
2019-03-24T20:46:54.229Z,5.40
2019-03-24T20:49:26.247Z,5.50
2019-03-24T20:51:58.944Z,5.30
2019-03-24T20:54:31.047Z,5.30
2019-03-24T20:57:06.172Z,5.30
2019-03-24T20:59:39.781Z,5.30
2019-03-24T21:02:11.640Z,5.30
2019-03-24T21:04:45.327Z,5.30
2019-03-24T21:07:18.859Z,5.20
2019-03-24T21:09:52.431Z,5.20
2019-03-24T21:12:26.026Z,5.20
2019-03-24T21:14:59.742Z,5.20
2019-03-24T21:17:33.462Z,5.20
2019-03-24T21:20:07.860Z,5.10
2019-03-24T21:22:40.848Z,5.10
2019-03-24T21:25:13.940Z,5.00
2019-03-24T21:27:47.023Z,5.10
2019-03-24T21:30:31.133Z,5.00
2019-03-24T21:33:04.713Z,5.00
2019-03-24T21:35:38.363Z,4.90
2019-03-24T21:38:11.854Z,5.00
2019-03-24T21:40:45.739Z,5.00
2019-03-24T21:43:17.729Z,4.90
2019-03-24T21:45:51.320Z,4.90
2019-03-24T21:48:24.916Z,4.90
2019-03-24T21:50:58.421Z,4.90
2019-03-24T21:53:40.264Z,4.90
2019-03-24T21:56:06.658Z,4.90
2019-03-24T21:58:41.232Z,4.90
2019-03-24T22:01:13.184Z,4.90
2019-03-24T22:03:47.008Z,5.00
2019-03-24T22:06:19.360Z,5.00
2019-03-24T22:08:52.602Z,5.00
2019-03-24T22:11:26.024Z,5.00
2019-03-24T22:13:59.599Z,5.00
2019-03-24T22:16:31.547Z,5.00
2019-03-24T22:19:04.729Z,4.90
2019-03-24T22:21:36.904Z,4.90
2019-03-24T22:24:09.861Z,4.90
2019-03-24T22:26:44.656Z,4.90
2019-03-24T22:29:18.203Z,4.90
2019-03-24T22:31:51.208Z,4.90
2019-03-24T22:34:24.196Z,4.90
2019-03-24T22:36:57.319Z,4.90
2019-03-24T22:39:29.674Z,4.90
2019-03-24T22:42:01.767Z,4.90
2019-03-24T22:44:35.304Z,4.90
2019-03-24T22:47:07.393Z,4.90
2019-03-24T22:49:40.353Z,4.90
2019-03-24T22:52:14.013Z,5.00
2019-03-24T22:54:47.688Z,5.00
2019-03-24T22:57:21.200Z,4.90
2019-03-24T22:59:55.099Z,5.00
2019-03-24T23:02:29.728Z,5.00
2019-03-24T23:05:03.506Z,5.00
2019-03-24T23:07:37.356Z,5.10
2019-03-24T23:10:11.094Z,5.10
2019-03-24T23:12:44.726Z,5.00
2019-03-24T23:15:16.726Z,5.00
2019-03-24T23:17:50.402Z,5.10
2019-03-24T23:20:22.526Z,5.10
2019-03-24T23:22:56.575Z,5.10
2019-03-24T23:25:30.145Z,5.00
2019-03-24T23:28:03.666Z,5.00
2019-03-24T23:30:37.357Z,5.00
2019-03-24T23:33:09.499Z,5.10
2019-03-24T23:35:43.318Z,5.00
2019-03-24T23:38:15.282Z,5.00
2019-03-24T23:40:47.332Z,4.90
2019-03-24T23:43:19.264Z,5.00
2019-03-24T23:45:52.830Z,5.00
2019-03-24T23:48:26.416Z,5.00
2019-03-24T23:51:00.811Z,4.90
2019-03-24T23:53:34.499Z,5.00
2019-03-24T23:56:06.577Z,5.00
2019-03-24T23:58:41.266Z,5.00
